Time;durP1;ratioP1;P1;durP2;ratioP2;P2;SDS_P1;SDS_P2;PMS_P1;PMS_P2;Temp;Humidity;BMP_temperature;BMP_pressure;BME280_temperature;BME280_humidity;BME280_pressure;Samples;Min_cycle;Max_cycle;Signal;HPM_P1;HPM_P2
2021/08/27 00:02:15;;;;;;;6.10;1.42;;;13.40;99.90;;;;;;7412368;19;20045;-96
2021/08/27 00:04:44;;;;;;;2.88;1.25;;;13.40;99.90;;;;;;7414800;19;20066;-96
2021/08/27 00:07:13;;;;;;;3.47;1.02;;;13.20;99.90;;;;;;7414835;19;20006;-96
2021/08/27 00:09:46;;;;;;;3.60;1.20;;;12.90;99.90;;;;;;7417384;19;20002;-96
2021/08/27 00:12:15;;;;;;;7.00;1.30;;;12.80;99.90;;;;;;7416524;19;20339;-96
2021/08/27 00:14:45;;;;;;;5.63;1.75;;;12.90;99.90;;;;;;7408177;19;20011;-96
2021/08/27 00:17:15;;;;;;;5.93;1.80;;;12.90;99.90;;;;;;7419388;19;20306;-96
2021/08/27 00:19:45;;;;;;;4.05;1.15;;;12.90;99.90;;;;;;7411466;19;20021;-96
2021/08/27 00:22:16;;;;;;;2.95;1.23;;;13.10;99.90;;;;;;7410973;19;20010;-96
2021/08/27 00:24:48;;;;;;;3.83;1.25;;;13.10;99.90;;;;;;7411092;19;20003;-96
2021/08/27 00:27:18;;;;;;;4.55;1.40;;;13.00;99.90;;;;;;7412621;19;20035;-96
2021/08/27 00:29:47;;;;;;;7.55;1.33;;;12.90;99.90;;;;;;7410110;19;20011;-96
2021/08/27 00:32:20;;;;;;;6.10;1.50;;;13.00;99.90;;;;;;7412577;19;20106;-96
2021/08/27 00:34:50;;;;;;;7.97;1.27;;;12.90;99.90;;;;;;7412901;19;20432;-96
2021/08/27 00:37:20;;;;;;;6.13;1.45;;;12.90;99.90;;;;;;7415507;19;20066;-96
2021/08/27 00:40:00;;;;;;;3.13;1.02;;;13.00;99.90;;;;;;7418138;19;20010;-96
2021/08/27 00:42:36;;;;;;;3.13;1.15;;;13.00;99.90;;;;;;7415612;19;20405;-96
2021/08/27 00:45:06;;;;;;;3.88;1.20;;;13.00;99.90;;;;;;7416347;19;20006;-96
2021/08/27 00:47:38;;;;;;;6.60;1.15;;;12.90;99.90;;;;;;7413358;19;20011;-96
2021/08/27 00:50:12;;;;;;;4.03;1.30;;;13.00;99.90;;;;;;7414180;19;20020;-96
2021/08/27 00:52:43;;;;;;;4.68;1.17;;;13.10;99.90;;;;;;7419989;19;20046;-96
2021/08/27 00:55:21;;;;;;;8.25;1.85;;;13.10;99.90;;;;;;7419138;19;20417;-97
2021/08/27 00:57:51;;;;;;;2.22;1.10;;;13.10;99.90;;;;;;7427428;19;20003;-96
2021/08/27 01:00:25;;;;;;;2.85;1.10;;;13.10;99.90;;;;;;7422996;19;20018;-96
2021/08/27 01:02:58;;;;;;;6.55;1.33;;;13.00;99.90;;;;;;7424612;19;20015;-96
2021/08/27 01:05:28;;;;;;;4.07;1.45;;;13.10;99.90;;;;;;7423042;19;20039;-96
2021/08/27 01:08:07;;;;;;;3.00;1.10;;;13.20;99.90;;;;;;7415650;19;20007;-96
2021/08/27 01:10:44;;;;;;;4.50;1.30;;;13.10;99.90;;;;;;7421877;19;20010;-96
2021/08/27 01:13:23;;;;;;;3.58;1.13;;;13.20;99.90;;;;;;7426875;19;20023;-96
2021/08/27 01:16:01;;;;;;;3.92;1.50;;;13.30;99.90;;;;;;7417833;19;20007;-96
2021/08/27 01:18:40;;;;;;;5.28;1.40;;;13.40;99.90;;;;;;7411671;19;20014;-95
2021/08/27 01:21:35;;;;;;;8.38;1.50;;;13.50;99.90;;;;;;7406671;19;20006;-96
2021/08/27 01:24:07;;;;;;;7.57;1.65;;;13.40;99.90;;;;;;7416064;19;20575;-96
2021/08/27 01:26:42;;;;;;;9.35;1.60;;;13.40;99.90;;;;;;7416457;19;20003;-96
2021/08/27 01:29:13;;;;;;;3.38;1.40;;;13.30;99.90;;;;;;7405326;19;19999;-96
2021/08/27 01:31:49;;;;;;;4.93;1.20;;;13.30;99.90;;;;;;7410399;19;20015;-96
2021/08/27 01:34:37;;;;;;;4.38;1.70;;;13.50;99.90;;;;;;7412602;19;20011;-96
2021/08/27 01:37:10;;;;;;;3.10;1.45;;;13.50;99.90;;;;;;7414043;19;20027;-96
2021/08/27 01:39:45;;;;;;;6.05;1.70;;;13.50;99.90;;;;;;7408903;19;20405;-96
2021/08/27 01:42:17;;;;;;;10.07;1.70;;;13.40;99.90;;;;;;7404335;19;20018;-96
2021/08/27 01:44:48;;;;;;;5.15;1.92;;;13.40;99.90;;;;;;7406851;19;20074;-96
2021/08/27 01:47:21;;;;;;;4.75;1.60;;;13.40;99.90;;;;;;7414158;19;20006;-96
2021/08/27 01:49:57;;;;;;;5.45;1.92;;;13.50;99.90;;;;;;7415619;19;19998;-96
2021/08/27 01:52:28;;;;;;;4.95;1.70;;;13.50;99.90;;;;;;7415685;19;20035;-96
2021/08/27 01:54:58;;;;;;;5.97;1.65;;;13.40;99.90;;;;;;7421416;19;20037;-96
2021/08/27 01:57:30;;;;;;;4.88;1.70;;;13.30;99.90;;;;;;7417519;19;20019;-96
2021/08/27 02:00:02;;;;;;;4.85;1.50;;;13.40;99.90;;;;;;7408379;19;20011;-96
2021/08/27 02:02:36;;;;;;;7.45;2.55;;;13.40;99.90;;;;;;7406576;19;20002;-96
2021/08/27 02:05:11;;;;;;;6.38;1.90;;;13.40;99.90;;;;;;7413547;19;20011;-96
2021/08/27 02:07:40;;;;;;;3.50;1.48;;;13.40;99.90;;;;;;7411999;19;20014;-96
2021/08/27 02:10:12;;;;;;;9.13;2.05;;;13.40;99.90;;;;;;7412506;19;20011;-96
2021/08/27 02:12:44;;;;;;;7.63;1.80;;;13.40;99.90;;;;;;7410196;19;20011;-95
2021/08/27 02:15:15;;;;;;;5.18;1.73;;;13.40;99.90;;;;;;7416145;19;20006;-94
2021/08/27 02:17:45;;;;;;;6.88;1.90;;;13.50;99.90;;;;;;7415504;19;20035;-96
2021/08/27 02:20:18;;;;;;;7.43;2.00;;;13.50;99.90;;;;;;7413176;19;20006;-96
2021/08/27 02:22:53;;;;;;;3.75;1.67;;;13.30;99.90;;;;;;7410937;19;20365;-96
2021/08/27 02:25:27;;;;;;;6.63;2.17;;;13.40;99.90;;;;;;7429796;19;20003;-96
2021/08/27 02:28:02;;;;;;;5.20;1.70;;;13.40;99.90;;;;;;7431229;19;20043;-96
2021/08/27 02:30:35;;;;;;;5.90;2.33;;;13.40;99.90;;;;;;7432789;19;20020;-96
2021/08/27 02:33:11;;;;;;;5.72;1.67;;;13.50;99.90;;;;;;7429608;19;20010;-96
2021/08/27 02:35:46;;;;;;;6.85;2.03;;;13.50;99.90;;;;;;7413145;19;20007;-96
2021/08/27 02:38:20;;;;;;;7.38;1.85;;;13.40;99.90;;;;;;7411797;19;20029;-96
2021/08/27 02:40:50;;;;;;;4.63;1.90;;;13.30;99.90;;;;;;7411041;19;20437;-96
2021/08/27 02:43:20;;;;;;;8.63;1.70;;;13.40;99.90;;;;;;7422735;19;20023;-96
2021/08/27 02:45:50;;;;;;;10.38;2.08;;;13.40;99.90;;;;;;7423462;19;20007;-96
2021/08/27 02:48:23;;;;;;;4.18;1.60;;;13.50;99.90;;;;;;7415908;19;20014;-96
2021/08/27 02:51:04;;;;;;;3.40;1.70;;;13.40;99.90;;;;;;7420526;19;20048;-96
2021/08/27 02:53:42;;;;;;;8.30;2.67;;;13.50;99.90;;;;;;7418335;19;20368;-96
2021/08/27 02:56:21;;;;;;;4.80;1.60;;;13.50;99.90;;;;;;7415706;19;20329;-96
2021/08/27 02:58:54;;;;;;;3.72;1.80;;;13.40;99.90;;;;;;7411962;19;20007;-96
2021/08/27 03:01:40;;;;;;;6.90;1.70;;;13.40;99.90;;;;;;7411690;19;20009;-96
2021/08/27 03:04:16;;;;;;;10.43;1.95;;;13.40;99.90;;;;;;7417396;19;20063;-95
2021/08/27 03:09:59;;;;;;;4.47;1.70;;;13.70;99.90;;;;;;7417902;19;20014;-95
2021/08/27 03:12:39;;;;;;;4.22;1.90;;;13.50;99.90;;;;;;7420720;19;20047;-95
2021/08/27 03:17:58;;;;;;;4.28;2.13;;;13.50;99.90;;;;;;7419513;19;20014;-96
2021/08/27 03:20:32;;;;;;;5.70;2.47;;;13.50;99.90;;;;;;7420947;19;20003;-96
2021/08/27 03:23:08;;;;;;;4.45;2.08;;;13.40;99.90;;;;;;7420805;19;20010;-96
2021/08/27 03:25:46;;;;;;;6.07;1.88;;;13.40;99.90;;;;;;7418295;19;20013;-96
2021/08/27 03:28:23;;;;;;;4.95;2.28;;;13.40;99.90;;;;;;7413775;19;20018;-95
2021/08/27 03:30:55;;;;;;;7.35;2.20;;;13.30;99.90;;;;;;7415117;19;20003;-96
2021/08/27 03:33:27;;;;;;;5.03;2.42;;;13.30;99.90;;;;;;7416309;19;20050;-96
2021/08/27 03:36:02;;;;;;;4.80;2.33;;;13.30;99.90;;;;;;7421843;19;20007;-96
2021/08/27 03:38:38;;;;;;;4.13;2.40;;;13.30;99.90;;;;;;7422767;19;20007;-96
2021/08/27 03:41:13;;;;;;;6.00;2.35;;;13.30;99.90;;;;;;7421337;19;20006;-96
2021/08/27 03:43:44;;;;;;;5.00;2.30;;;13.30;99.90;;;;;;7419952;19;20010;-96
2021/08/27 03:46:15;;;;;;;5.05;2.80;;;13.30;99.90;;;;;;7421516;19;19998;-96
2021/08/27 03:48:50;;;;;;;9.00;3.00;;;13.40;99.90;;;;;;7431102;19;20006;-96
2021/08/27 03:51:21;;;;;;;5.18;3.03;;;13.30;99.90;;;;;;7422829;19;20013;-96
2021/08/27 03:53:54;;;;;;;6.18;3.80;;;13.30;99.90;;;;;;7425141;19;20015;-96
2021/08/27 03:56:33;;;;;;;8.18;3.33;;;13.40;99.90;;;;;;7417718;19;20007;-96
2021/08/27 03:59:06;;;;;;;9.70;3.65;;;13.50;99.90;;;;;;7418073;19;20021;-95
2021/08/27 04:01:41;;;;;;;6.97;4.05;;;13.40;99.90;;;;;;7417009;19;20078;-96
2021/08/27 04:04:19;;;;;;;8.88;3.83;;;13.30;99.90;;;;;;7422961;19;20014;-95
2021/08/27 04:07:00;;;;;;;6.75;3.70;;;13.30;99.90;;;;;;7422736;19;20011;-96
2021/08/27 04:09:31;;;;;;;8.70;4.05;;;13.30;99.90;;;;;;7417351;19;20010;-96
2021/08/27 04:12:10;;;;;;;14.05;5.10;;;13.30;99.90;;;;;;7421147;19;20010;-96
2021/08/27 04:14:43;;;;;;;10.65;4.53;;;13.30;99.90;;;;;;7418022;19;20014;-90
2021/08/27 04:17:16;;;;;;;13.15;4.72;;;13.40;99.90;;;;;;7431598;19;20031;-94
2021/08/27 04:19:47;;;;;;;8.57;5.05;;;13.40;99.90;;;;;;7429168;19;20015;-93
2021/08/27 04:22:16;;;;;;;6.55;4.68;;;13.40;99.90;;;;;;7425799;19;20034;-95
2021/08/27 04:24:46;;;;;;;7.78;5.65;;;13.20;99.90;;;;;;7422955;19;20006;-94
2021/08/27 04:27:21;;;;;;;9.93;6.10;;;13.20;99.90;;;;;;7410585;19;20026;-96
2021/08/27 04:29:52;;;;;;;8.88;5.78;;;13.00;99.90;;;;;;7412371;19;20023;-96
2021/08/27 04:32:23;;;;;;;9.77;5.60;;;13.10;99.90;;;;;;7407419;19;20006;-95
2021/08/27 04:34:52;;;;;;;12.00;5.80;;;13.10;99.90;;;;;;7404722;19;20006;-95
2021/08/27 04:37:25;;;;;;;13.18;5.70;;;13.10;99.90;;;;;;7415273;19;20010;-96
2021/08/27 04:39:55;;;;;;;11.23;5.90;;;12.90;99.90;;;;;;7428436;19;19998;-96
2021/08/27 04:42:28;;;;;;;11.95;5.43;;;12.80;99.90;;;;;;7414714;19;20409;-95
2021/08/27 04:45:01;;;;;;;8.18;5.03;;;12.80;99.90;;;;;;7412010;19;20031;-94
2021/08/27 04:47:31;;;;;;;8.80;5.53;;;13.00;99.90;;;;;;7422173;19;20039;-95
2021/08/27 04:50:01;;;;;;;9.15;4.80;;;12.90;99.90;;;;;;7427028;19;20030;-94
2021/08/27 04:52:33;;;;;;;6.75;4.57;;;12.90;99.90;;;;;;7428404;19;20003;-95
2021/08/27 04:55:05;;;;;;;10.98;4.93;;;12.90;99.90;;;;;;7431585;19;20035;-96
2021/08/27 04:57:42;;;;;;;11.95;5.03;;;12.90;99.90;;;;;;7427009;19;20015;-96
2021/08/27 05:00:14;;;;;;;9.38;4.60;;;12.90;99.90;;;;;;7423208;19;20010;-96
2021/08/27 05:02:44;;;;;;;7.65;4.90;;;12.90;99.90;;;;;;7422381;19;20014;-96
2021/08/27 05:05:15;;;;;;;9.18;5.90;;;12.90;99.90;;;;;;7422243;19;20034;-96
2021/08/27 05:07:46;;;;;;;9.88;4.93;;;12.90;99.90;;;;;;7418997;19;20039;-96
2021/08/27 05:10:19;;;;;;;8.25;4.97;;;12.90;99.90;;;;;;7413223;19;20014;-96
2021/08/27 05:12:52;;;;;;;8.02;5.07;;;12.90;99.90;;;;;;7414352;19;20039;-95
2021/08/27 05:15:21;;;;;;;7.68;5.20;;;13.00;99.90;;;;;;7410483;19;20014;-94
2021/08/27 05:17:54;;;;;;;7.88;5.13;;;13.10;99.90;;;;;;7411068;19;20087;-96
2021/08/27 05:20:27;;;;;;;8.68;5.10;;;13.00;99.90;;;;;;7412040;19;20014;-96
2021/08/27 05:23:03;;;;;;;11.23;5.35;;;12.90;99.90;;;;;;7409928;19;20033;-96
2021/08/27 05:25:33;;;;;;;10.57;5.65;;;12.90;99.90;;;;;;7422849;19;20016;-96
2021/08/27 05:28:08;;;;;;;10.48;5.30;;;12.80;99.90;;;;;;7411515;19;20021;-95
2021/08/27 05:30:41;;;;;;;8.30;5.63;;;12.90;99.90;;;;;;7412961;19;20014;-96
2021/08/27 05:33:11;;;;;;;9.50;5.72;;;12.90;99.90;;;;;;7409297;19;20436;-96
2021/08/27 05:35:40;;;;;;;12.88;6.50;;;12.90;99.90;;;;;;7409888;19;20007;-95
2021/08/27 05:38:12;;;;;;;11.23;6.05;;;12.80;99.90;;;;;;7408363;19;20096;-93
2021/08/27 05:40:43;;;;;;;8.27;5.95;;;12.90;99.90;;;;;;7410489;19;20014;-94
2021/08/27 05:43:16;;;;;;;11.90;6.00;;;12.80;99.90;;;;;;7416904;19;20343;-95
2021/08/27 05:45:50;;;;;;;11.80;6.63;;;12.90;99.90;;;;;;7424107;19;20006;-95
2021/08/27 05:48:21;;;;;;;11.32;6.65;;;12.90;99.90;;;;;;7417091;19;20122;-96
2021/08/27 05:50:56;;;;;;;9.70;5.82;;;12.80;99.90;;;;;;7416592;19;20045;-93
2021/08/27 05:53:29;;;;;;;11.65;5.93;;;13.00;99.90;;;;;;7422143;19;20010;-91
2021/08/27 05:56:02;;;;;;;9.35;6.05;;;13.10;99.90;;;;;;7413244;19;19999;-93
2021/08/27 05:58:36;;;;;;;8.63;5.75;;;13.20;99.90;;;;;;7414948;19;20007;-90
2021/08/27 06:01:07;;;;;;;10.45;6.15;;;13.20;99.90;;;;;;7408959;19;20074;-95
2021/08/27 06:03:36;;;;;;;10.00;6.13;;;13.20;99.90;;;;;;7410416;19;20007;-94
2021/08/27 06:06:08;;;;;;;12.68;6.00;;;13.30;99.90;;;;;;7407713;19;20014;-95
2021/08/27 06:08:38;;;;;;;10.68;6.32;;;13.40;99.90;;;;;;7412200;19;20005;-94
2021/08/27 06:14:09;;;;;;;12.65;6.22;;;13.50;99.90;;;;;;7388538;19;20014;-92
2021/08/27 06:16:38;;;;;;;9.02;6.25;;;13.50;99.90;;;;;;7429058;19;20752;-90
2021/08/27 06:22:08;;;;;;;10.43;6.45;;;13.50;99.90;;;;;;7405810;19;20011;-91
2021/08/27 06:24:39;;;;;;;12.55;6.35;;;13.40;99.90;;;;;;7408861;19;20002;-93
2021/08/27 06:27:09;;;;;;;8.40;6.07;;;13.40;99.90;;;;;;7422662;19;20010;-91
2021/08/27 06:29:44;;;;;;;9.95;6.78;;;13.50;99.90;;;;;;7411360;19;20350;-92
2021/08/27 06:32:14;;;;;;;13.80;6.72;;;13.50;99.90;;;;;;7408549;19;20010;-91
2021/08/27 06:34:46;;;;;;;11.32;6.57;;;13.50;99.90;;;;;;7414568;19;20010;-89
2021/08/27 06:37:17;;;;;;;10.88;6.72;;;13.50;99.90;;;;;;7412421;19;19998;-86
2021/08/27 06:39:48;;;;;;;9.32;6.28;;;13.60;99.90;;;;;;7390747;19;20050;-91
2021/08/27 06:45:16;;;;;;;12.63;6.47;;;13.60;99.90;;;;;;7374927;19;20042;-91
2021/08/27 06:47:47;;;;;;;11.65;6.45;;;13.60;99.90;;;;;;7432738;19;20005;-89
2021/08/27 06:50:17;;;;;;;8.45;5.57;;;13.60;99.90;;;;;;7373289;19;20028;-82
2021/08/27 06:52:46;;;;;;;13.20;5.82;;;13.70;99.90;;;;;;7427669;19;20007;-92
2021/08/27 06:55:16;;;;;;;10.75;6.03;;;13.70;99.90;;;;;;7427534;19;20026;-85
2021/08/27 06:57:46;;;;;;;12.68;6.00;;;13.60;99.90;;;;;;7431660;19;20010;-89
2021/08/27 07:00:21;;;;;;;9.77;5.40;;;13.70;99.90;;;;;;7415228;19;20010;-91
2021/08/27 07:02:51;;;;;;;10.20;5.22;;;13.70;99.90;;;;;;7424229;19;20014;-89
2021/08/27 07:05:24;;;;;;;9.80;5.28;;;13.70;99.90;;;;;;7428415;19;20010;-90
2021/08/27 07:07:56;;;;;;;10.13;4.38;;;13.80;99.90;;;;;;7426528;19;20042;-92
2021/08/27 07:10:30;;;;;;;7.75;4.90;;;13.60;99.90;;;;;;7419648;19;20010;-92
2021/08/27 07:13:01;;;;;;;7.75;4.53;;;13.50;99.90;;;;;;7422739;19;20010;-93
2021/08/27 07:15:34;;;;;;;8.95;4.70;;;13.50;99.90;;;;;;7415800;19;20015;-92
2021/08/27 07:18:08;;;;;;;13.57;5.90;;;13.50;99.90;;;;;;7428653;19;20003;-93
2021/08/27 07:20:38;;;;;;;7.63;4.53;;;13.40;99.90;;;;;;7414678;19;20007;-89
2021/08/27 07:23:10;;;;;;;12.40;5.25;;;13.30;99.90;;;;;;7424968;19;20007;-90
2021/08/27 07:28:36;;;;;;;11.13;5.32;;;13.30;99.90;;;;;;7415346;19;20018;-92
2021/08/27 07:31:12;;;;;;;11.25;4.95;;;13.10;99.90;;;;;;7426252;19;20035;-90
2021/08/27 07:33:44;;;;;;;8.60;4.95;;;13.20;99.90;;;;;;7429633;19;20014;-91
2021/08/27 07:36:14;;;;;;;9.63;5.25;;;13.20;99.90;;;;;;7414501;19;20002;-89
2021/08/27 07:38:46;;;;;;;8.73;4.47;;;13.20;99.90;;;;;;7371995;19;20209;-79
2021/08/27 07:41:17;;;;;;;13.55;6.45;;;13.20;99.90;;;;;;7343240;19;20043;-89
2021/08/27 07:46:45;;;;;;;11.20;4.95;;;13.00;99.90;;;;;;7360354;19;20011;-89
2021/08/27 07:49:15;;;;;;;8.63;4.85;;;12.80;99.90;;;;;;7423656;19;20114;-88
2021/08/27 07:51:47;;;;;;;12.02;4.35;;;12.70;99.90;;;;;;7415044;19;20040;-89
2021/08/27 07:54:16;;;;;;;10.95;4.50;;;12.60;99.90;;;;;;7410101;19;20044;-89
2021/08/27 07:56:46;;;;;;;12.10;4.72;;;12.60;99.90;;;;;;7403150;19;20074;-91
2021/08/27 07:59:17;;;;;;;10.20;4.63;;;12.60;99.90;;;;;;7405134;19;20033;-89
2021/08/27 08:01:49;;;;;;;12.00;4.43;;;12.60;99.90;;;;;;7416345;19;20034;-87
2021/08/27 08:04:21;;;;;;;9.85;5.32;;;12.70;99.90;;;;;;7423673;19;20082;-89
2021/08/27 08:06:50;;;;;;;11.77;4.97;;;12.70;99.90;;;;;;7418558;19;20010;-87
2021/08/27 08:09:19;;;;;;;11.15;4.50;;;12.80;99.90;;;;;;7423207;19;20128;-89
2021/08/27 08:11:49;;;;;;;7.55;4.38;;;12.80;99.90;;;;;;7411365;19;20019;-89
2021/08/27 08:14:18;;;;;;;8.23;4.40;;;12.80;99.90;;;;;;7408803;19;20468;-91
2021/08/27 08:16:50;;;;;;;9.73;4.57;;;12.80;99.90;;;;;;7405731;19;20011;-90
2021/08/27 08:19:22;;;;;;;9.73;4.72;;;12.70;99.90;;;;;;7412862;19;20011;-89
2021/08/27 08:21:52;;;;;;;13.93;5.20;;;12.90;99.90;;;;;;7410800;19;20071;-92
2021/08/27 08:24:21;;;;;;;11.75;5.25;;;12.90;99.90;;;;;;7409136;19;20010;-91
2021/08/27 08:26:50;;;;;;;21.35;5.53;;;12.80;99.90;;;;;;7425391;19;20054;-86
2021/08/27 08:29:22;;;;;;;12.52;4.15;;;12.70;99.90;;;;;;7420620;19;20003;-90
2021/08/27 08:31:54;;;;;;;17.38;4.60;;;12.70;99.90;;;;;;7414007;19;20119;-92
2021/08/27 08:34:23;;;;;;;18.13;6.03;;;12.70;99.90;;;;;;7416490;19;20123;-92
2021/08/27 08:36:55;;;;;;;14.63;5.57;;;12.70;99.90;;;;;;7417192;19;20011;-91
2021/08/27 08:39:24;;;;;;;15.40;6.72;;;12.60;99.90;;;;;;7420003;19;20019;-89
2021/08/27 08:41:55;;;;;;;15.95;6.20;;;12.60;99.90;;;;;;7417392;19;20010;-89
2021/08/27 08:44:30;;;;;;;21.20;7.10;;;12.70;99.90;;;;;;7411227;19;20047;-91
2021/08/27 08:47:03;;;;;;;18.80;7.30;;;12.60;99.90;;;;;;7409902;19;20021;-91
2021/08/27 08:49:35;;;;;;;18.63;7.15;;;12.60;99.90;;;;;;7403029;19;20368;-93
2021/08/27 08:52:09;;;;;;;24.25;8.10;;;12.70;99.90;;;;;;7403518;19;20011;-92
2021/08/27 08:54:39;;;;;;;16.25;7.97;;;12.70;99.90;;;;;;7410329;19;20308;-93
2021/08/27 08:59:58;;;;;;;26.90;9.45;;;12.80;99.90;;;;;;7398502;19;19911;-92
2021/08/27 09:02:30;;;;;;;19.15;7.57;;;12.80;99.90;;;;;;7406788;19;20432;-91
2021/08/27 09:05:00;;;;;;;25.55;8.25;;;12.80;99.90;;;;;;7406751;19;20015;-93
2021/08/27 09:07:30;;;;;;;18.58;7.65;;;12.90;99.90;;;;;;7406733;19;20024;-91
2021/08/27 09:10:05;;;;;;;28.10;8.05;;;12.90;99.90;;;;;;7406110;19;20018;-93
2021/08/27 09:12:36;;;;;;;16.08;6.68;;;12.90;99.90;;;;;;7405617;19;20026;-93
2021/08/27 09:15:10;;;;;;;19.25;7.68;;;13.00;99.90;;;;;;7406523;19;20013;-90
2021/08/27 09:17:45;;;;;;;12.80;6.25;;;13.10;99.90;;;;;;7406512;19;20066;-92
2021/08/27 09:20:16;;;;;;;9.13;5.05;;;13.20;99.90;;;;;;7406035;19;20018;-89
2021/08/27 09:22:49;;;;;;;10.25;4.38;;;13.20;99.90;;;;;;7415268;19;20035;-87
2021/08/27 09:25:20;;;;;;;10.20;4.75;;;13.10;99.90;;;;;;7409287;19;20018;-92
2021/08/27 09:28:04;;;;;;;7.60;4.13;;;13.20;99.90;;;;;;7408615;19;20036;-91
2021/08/27 09:30:36;;;;;;;10.85;5.05;;;13.20;99.90;;;;;;7406426;19;20018;-93
2021/08/27 09:33:17;;;;;;;10.70;4.57;;;13.30;99.90;;;;;;7409209;19;20009;-92
2021/08/27 09:35:59;;;;;;;8.73;4.43;;;13.30;99.90;;;;;;7409190;19;20371;-92
2021/08/27 09:38:32;;;;;;;7.22;3.95;;;13.20;99.90;;;;;;7411395;19;20007;-90
2021/08/27 09:41:03;;;;;;;7.85;4.40;;;13.10;99.90;;;;;;7412831;19;20014;-91
2021/08/27 09:43:42;;;;;;;10.60;4.13;;;13.00;99.90;;;;;;7407024;19;20021;-91
2021/08/27 09:46:36;;;;;;;8.25;4.38;;;13.00;99.90;;;;;;7408869;19;20007;-93
2021/08/27 09:49:28;;;;;;;7.43;4.00;;;13.10;99.90;;;;;;7410462;19;20011;-90
2021/08/27 09:52:02;;;;;;;13.23;4.40;;;13.00;99.90;;;;;;7412990;19;20016;-89
2021/08/27 09:54:34;;;;;;;9.95;4.03;;;13.10;99.90;;;;;;7419079;19;20022;-92
2021/08/27 09:57:04;;;;;;;8.30;4.13;;;13.10;99.90;;;;;;7420790;19;20010;-93
2021/08/27 09:59:39;;;;;;;8.07;4.32;;;13.10;99.90;;;;;;7409879;19;20029;-91
2021/08/27 10:02:10;;;;;;;10.20;4.47;;;13.10;99.90;;;;;;7411775;19;20019;-92
2021/08/27 10:04:54;;;;;;;8.95;4.30;;;13.20;99.90;;;;;;7406779;19;20334;-92
2021/08/27 10:07:29;;;;;;;10.13;3.70;;;13.10;99.90;;;;;;7412411;19;20010;-93
2021/08/27 10:10:03;;;;;;;8.75;4.22;;;13.10;99.90;;;;;;7413197;19;20006;-91
2021/08/27 10:12:35;;;;;;;9.73;4.50;;;13.20;99.90;;;;;;7412083;19;20017;-92
2021/08/27 10:15:06;;;;;;;8.55;4.15;;;13.30;99.90;;;;;;7410322;19;20009;-92
2021/08/27 10:17:37;;;;;;;9.30;4.85;;;13.30;99.90;;;;;;7414476;19;20026;-92
2021/08/27 10:20:15;;;;;;;11.63;4.28;;;13.30;99.90;;;;;;7410315;19;20014;-93
2021/08/27 10:22:44;;;;;;;11.98;4.80;;;13.40;99.90;;;;;;7408050;19;20063;-93
2021/08/27 10:25:15;;;;;;;8.43;3.95;;;13.40;99.90;;;;;;7409429;19;20017;-92
2021/08/27 10:27:56;;;;;;;8.93;3.97;;;13.40;99.90;;;;;;7406562;19;20593;-93
2021/08/27 10:30:57;;;;;;;7.22;3.83;;;13.50;99.90;;;;;;7406466;19;20011;-92
2021/08/27 10:34:08;;;;;;;7.25;4.38;;;13.60;99.90;;;;;;7404689;19;20412;-91
2021/08/27 10:36:56;;;;;;;7.78;3.85;;;13.50;99.90;;;;;;7405831;19;20011;-92
2021/08/27 10:39:42;;;;;;;8.35;3.53;;;13.40;99.90;;;;;;7406323;19;20140;-92
2021/08/27 10:42:28;;;;;;;;;;;13.40;99.90;;;;;;7405145;19;20002;-93
2021/08/27 10:44:58;;;;;;;6.70;3.80;;;13.40;99.90;;;;;;7401390;19;19911;-93
2021/08/27 10:47:27;;;;;;;7.20;4.13;;;13.50;99.90;;;;;;7403410;19;20021;-93
2021/08/27 10:50:02;;;;;;;9.40;3.63;;;13.70;99.90;;;;;;7406052;19;20015;-91
2021/08/27 10:52:40;;;;;;;5.18;3.65;;;13.70;99.90;;;;;;7409950;19;20014;-93
2021/08/27 10:55:18;;;;;;;11.57;4.22;;;13.80;99.90;;;;;;7404946;19;20013;-92
2021/08/27 10:58:01;;;;;;;8.68;4.22;;;14.00;99.90;;;;;;7405410;19;20011;-91
2021/08/27 11:00:39;;;;;;;6.95;4.22;;;14.20;99.90;;;;;;7404124;19;20010;-91
2021/08/27 11:03:10;;;;;;;8.05;4.88;;;14.30;99.90;;;;;;7404119;19;20394;-92
2021/08/27 11:05:42;;;;;;;8.32;3.78;;;14.40;99.90;;;;;;7403551;19;20010;-93
2021/08/27 11:08:17;;;;;;;6.22;3.45;;;14.60;99.90;;;;;;7406292;19;20014;-91
2021/08/27 11:11:07;;;;;;;5.93;3.10;;;14.60;99.90;;;;;;7402866;19;20078;-92
2021/08/27 11:13:41;;;;;;;8.65;3.17;;;14.60;99.90;;;;;;7402175;19;20010;-92
2021/08/27 11:16:26;;;;;;;9.60;3.15;;;14.40;99.90;;;;;;7403250;19;20014;-92
2021/08/27 11:18:58;;;;;;;6.07;3.20;;;14.10;99.90;;;;;;7401883;19;20423;-93
2021/08/27 11:21:35;;;;;;;12.30;6.07;;;13.90;99.90;;;;;;7403892;19;20015;-93
2021/08/27 11:24:15;;;;;;;5.70;4.05;;;13.90;99.90;;;;;;7402359;19;20051;-91
2021/08/27 11:26:48;;;;;;;6.90;4.13;;;13.90;99.90;;;;;;7403615;19;20009;-93
2021/08/27 11:29:42;;;;;;;14.82;4.90;;;14.00;99.90;;;;;;7401697;19;20003;-92
2021/08/27 11:32:34;;;;;;;13.43;5.45;;;14.10;99.90;;;;;;7404045;19;20066;-93
2021/08/27 11:35:06;;;;;;;13.32;6.75;;;14.60;99.90;;;;;;7406508;19;20009;-93
2021/08/27 11:37:36;;;;;;;6.63;4.18;;;14.90;99.90;;;;;;7403280;19;20014;-90
2021/08/27 11:40:09;;;;;;;5.47;3.55;;;14.90;99.90;;;;;;7404096;19;20011;-89
2021/08/27 11:42:40;;;;;;;6.53;3.25;;;14.70;99.90;;;;;;7403217;19;20006;-90
2021/08/27 11:45:18;;;;;;;5.85;2.95;;;14.90;99.90;;;;;;7400205;19;20021;-93
2021/08/27 11:47:49;;;;;;;5.70;3.33;;;15.10;99.90;;;;;;7399518;19;20446;-93
2021/08/27 11:50:24;;;;;;;4.18;3.00;;;15.30;99.90;;;;;;7404589;19;20349;-91
2021/08/27 11:52:57;;;;;;;3.65;2.65;;;15.50;99.90;;;;;;7405725;19;20011;-91
2021/08/27 11:55:28;;;;;;;5.05;2.80;;;15.60;99.90;;;;;;7403628;19;20007;-90
2021/08/27 11:57:59;;;;;;;4.43;2.28;;;16.20;99.90;;;;;;7416178;19;20022;-83
2021/08/27 12:00:37;;;;;;;3.35;2.08;;;16.70;99.90;;;;;;7408210;19;20017;-88
2021/08/27 12:03:15;;;;;;;4.55;2.08;;;17.20;99.90;;;;;;7401823;19;20015;-90
2021/08/27 12:05:49;;;;;;;3.10;1.83;;;17.00;99.90;;;;;;7399653;19;20420;-89
2021/08/27 12:08:23;;;;;;;2.75;1.63;;;16.80;99.90;;;;;;7401136;19;20031;-88
2021/08/27 12:10:55;;;;;;;4.82;1.80;;;17.10;99.90;;;;;;7406601;19;20417;-88
2021/08/27 12:13:24;;;;;;;3.67;1.80;;;17.00;99.90;;;;;;7402441;19;20030;-89
2021/08/27 12:16:10;;;;;;;2.00;1.30;;;16.50;99.90;;;;;;7401941;19;20006;-88
2021/08/27 12:18:41;;;;;;;5.10;1.55;;;16.30;99.90;;;;;;7404606;19;20002;-90
2021/08/27 12:21:12;;;;;;;3.67;1.70;;;16.30;99.90;;;;;;7407110;19;20018;-91
2021/08/27 12:23:41;;;;;;;2.58;1.52;;;16.00;99.90;;;;;;7405353;19;20015;-91
2021/08/27 12:26:22;;;;;;;3.40;1.77;;;15.70;99.90;;;;;;7403025;19;20010;-90
2021/08/27 12:28:51;;;;;;;4.43;1.77;;;15.60;99.90;;;;;;7402557;19;20456;-90
2021/08/27 12:31:23;;;;;;;2.80;1.70;;;15.70;99.90;;;;;;7405797;19;20014;-89
2021/08/27 12:33:55;;;;;;;2.40;1.13;;;16.30;99.90;;;;;;7403834;19;20038;-89
2021/08/27 12:36:25;;;;;;;2.28;1.38;;;17.80;99.90;;;;;;7403038;19;20014;-88
2021/08/27 12:38:55;;;;;;;2.72;1.20;;;18.00;99.90;;;;;;7403007;19;20043;-89
2021/08/27 12:41:31;;;;;;;2.33;1.30;;;17.60;99.90;;;;;;7401244;19;20014;-90
2021/08/27 12:44:11;;;;;;;2.92;1.63;;;16.80;99.90;;;;;;7405138;19;20044;-87
2021/08/27 12:46:49;;;;;;;2.90;1.65;;;16.60;99.90;;;;;;7404563;19;20023;-90
2021/08/27 12:49:21;;;;;;;3.40;2.00;;;16.50;99.90;;;;;;7403101;19;20014;-89
2021/08/27 12:51:52;;;;;;;3.08;1.60;;;17.00;99.90;;;;;;7402035;19;20070;-89
2021/08/27 12:54:26;;;;;;;4.55;1.30;;;18.20;99.90;;;;;;7402399;19;20007;-88
2021/08/27 12:57:03;;;;;;;1.83;0.90;;;19.40;99.90;;;;;;7401152;19;20438;-87
2021/08/27 12:59:35;;;;;;;5.85;3.35;;;19.90;99.90;;;;;;7403671;19;20047;-85
2021/08/27 13:02:17;;;;;;;3.33;1.40;;;19.60;99.90;;;;;;7402860;19;20042;-87
2021/08/27 13:04:49;;;;;;;2.45;1.20;;;19.80;99.90;;;;;;7405041;19;20018;-88
2021/08/27 13:07:25;;;;;;;2.55;1.27;;;19.50;99.90;;;;;;7404629;19;20082;-90
2021/08/27 13:10:14;;;;;;;3.35;2.10;;;19.10;99.90;;;;;;7402154;19;20002;-89
2021/08/27 13:12:45;;;;;;;2.50;1.20;;;18.90;99.90;;;;;;7403194;19;20010;-88
2021/08/27 13:15:21;;;;;;;2.20;1.08;;;18.80;99.90;;;;;;7404706;19;20010;-88
2021/08/27 13:18:11;;;;;;;3.38;0.95;;;18.90;99.90;;;;;;7401239;19;20020;-89
2021/08/27 13:20:41;;;;;;;3.40;1.08;;;18.70;99.90;;;;;;7400299;19;20010;-88
2021/08/27 13:23:20;;;;;;;1.98;1.00;;;18.90;99.90;;;;;;7404410;19;20011;-88
2021/08/27 13:25:54;;;;;;;3.08;0.90;;;20.30;99.90;;;;;;7401126;19;20007;-90
2021/08/27 13:28:24;;;;;;;1.88;1.00;;;20.20;99.90;;;;;;7402299;19;20018;-90
2021/08/27 13:30:54;;;;;;;2.85;1.20;;;19.20;99.90;;;;;;7399508;19;20074;-89
2021/08/27 13:33:26;;;;;;;3.25;1.20;;;18.70;99.90;;;;;;7399755;19;20029;-89
2021/08/27 13:35:56;;;;;;;1.98;1.10;;;18.40;99.90;;;;;;7403534;19;20042;-89
2021/08/27 13:38:26;;;;;;;2.53;1.10;;;18.50;99.90;;;;;;7400456;19;20010;-89
2021/08/27 13:40:57;;;;;;;1.88;1.00;;;18.50;99.90;;;;;;7401618;19;20031;-88